Nearby METAR Reports

 

TNCA - Queen Beatrix, Lesser Antilles
Distance from station: 0 0km
Updated: 25/06/2017 23:00
Few Clouds
Few Clouds
 Wind from ENE
Wind: ENE 28 km/h
Temperature: 28°C
Heat Index: 32°C
Dew Point: 25°C
Humidity: 84%
Barometer: 1013 hPa
Clouds: Few Clouds
Visibility: 10 km
Cloud details: Few Clouds 579 m
2017/06/26 03:00 TNCA 260300Z 07015KT 9999 FEW019 28/25 Q1013 A2994 NOSIG
SVJC - Paraguana/Josefa, Venezuela
Distance from station: S 83km
Updated: 17/10/2016 15:00
NOT Current
Partly Cloudy
Partly Cloudy
 Wind from E
Wind: E 19 km/h
Temperature: 30°C
Heat Index: 33°C
Dew Point: 22°C
Humidity: 62%
Barometer: 1006 hPa
Clouds: Partly Cloudy
Visibility: 7 km
Cloud details: Partly Cloudy 1219 m
2016/10/17 19:00 SVJC 171900Z 09010KT 7000 SCT040 30/22 Q1006
 
TNCC - Hato Air Curacao, Lesser Antilles
Distance from station: ESE 117km
Updated: 25/06/2017 23:00
Few Clouds
Few Clouds
 Wind from E
Wind: E 26 km/h
Temperature: 27°C
Heat Index: 31°C
Dew Point: 24°C
Humidity: 84%
Barometer: 1015 hPa
Clouds: Few Clouds
Visibility: 10 km
Cloud details: Few Clouds 518 m
2017/06/26 03:00 TNCC 260300Z 09014KT 9999 FEW017 27/24 Q1015 NOSIG
SVCR - Coro/Jose Leonar, Venezuela
Distance from station: SSE 126km
Updated: 31/12/2016 11:00
NOT Current
Few Clouds
Few Clouds
 Wind from ESE
Wind: ESE 28 km/h
Clouds: Few Clouds
Visibility: 10 km
Cloud details: Few Clouds 488 m
2016/12/31 15:00 SVCR 311500Z 12015KT 9999 FEW016 XX/XX Q1015
 
TNCB - Bonaire/Flamingo, Lesser Antilles
Distance from station: ESE 191km
Updated: 25/06/2017 22:55
Mostly Cloudy
Mostly Cloudy
 Wind from E
Wind: E 30 km/h
Temperature: 27°C
Heat Index: 31°C
Dew Point: 24°C
Humidity: 84%
Barometer: 1015 hPa
Clouds: Mostly Cloudy
Visibility: 10 km
Cloud details: Few Clouds 457 m
Mostly Cloudy 853 m
Mostly Cloudy 1006 m
2017/06/26 02:55 TNCB 260255Z AUTO 08016KT 9999 FEW015/// BKN028/// BKN033/// 27/24 Q1015
SVMC - Maracaibo/La Chi, Venezuela
Distance from station: SW 285km
Updated: 25/06/2017 13:00
NOT Current
Mostly Cloudy
Mostly Cloudy
 Wind from varies
Wind: varies 0 km/h
Temperature: 33°C
Heat Index: 42°C
Dew Point: 26°C
Humidity: 67%
Barometer: 1013 hPa
Clouds: Mostly Cloudy
Visibility: 10 km
Cloud details: Mostly Cloudy 488 m
2017/06/25 17:00 SVMC 251700Z /////KT 9999 BKN016 33/26 Q1013